createdAt,value
2022-08-22T00:01:28.961Z,25.00
2022-08-22T00:03:09.034Z,25.30
2022-08-22T00:03:11.846Z,24.90
2022-08-22T00:03:16.333Z,25.50
2022-08-22T00:04:18.063Z,24.90
2022-08-22T00:06:58.570Z,25.00
2022-08-22T00:09:39.187Z,25.00
2022-08-22T00:12:17.527Z,25.20
2022-08-22T00:15:00.048Z,25.30
2022-08-22T00:17:28.040Z,25.60
2022-08-22T00:20:09.766Z,25.70
2022-08-22T00:22:49.889Z,25.70
2022-08-22T00:25:30.570Z,25.50
2022-08-22T00:28:07.178Z,25.30
2022-08-22T00:30:45.027Z,25.20
2022-08-22T00:33:45.925Z,25.20
2022-08-22T00:36:20.423Z,25.20
2022-08-22T00:39:01.425Z,25.20
2022-08-22T00:42:02.142Z,25.10
2022-08-22T00:44:42.778Z,25.10
2022-08-22T00:47:36.572Z,25.10
2022-08-22T00:50:05.682Z,25.00
2022-08-22T00:52:52.202Z,25.10
2022-08-22T00:55:44.677Z,25.40
2022-08-22T00:58:37.063Z,25.60
2022-08-22T01:01:08.903Z,25.60
2022-08-22T01:03:46.045Z,25.70
2022-08-22T01:06:45.247Z,25.50
2022-08-22T01:09:58.122Z,25.20
2022-08-22T01:13:01.741Z,25.10
2022-08-22T01:15:34.980Z,25.10
2022-08-22T01:18:41.566Z,25.00
2022-08-22T01:21:41.975Z,25.20
2022-08-22T01:24:10.122Z,25.20
2022-08-22T01:26:59.844Z,25.20
2022-08-22T01:29:42.089Z,25.20
2022-08-22T01:32:45.690Z,25.10
2022-08-22T01:35:28.257Z,25.30
2022-08-22T01:38:38.150Z,25.50
2022-08-22T01:41:10.426Z,25.80
2022-08-22T01:44:00.401Z,25.90
2022-08-22T01:46:44.033Z,25.80
2022-08-22T01:49:30.383Z,25.60
2022-08-22T01:52:38.347Z,25.30
2022-08-22T01:55:33.033Z,25.20
2022-08-22T01:58:14.905Z,25.10
2022-08-22T02:01:11.564Z,25.00
2022-08-22T02:04:24.223Z,25.00
2022-08-22T02:07:17.665Z,25.00
2022-08-22T02:10:04.233Z,25.00
2022-08-22T02:13:10.674Z,25.00
2022-08-22T02:15:43.995Z,25.00
2022-08-22T02:18:22.704Z,25.00
2022-08-22T02:21:19.463Z,25.20
2022-08-22T02:24:15.069Z,25.40
2022-08-22T02:27:07.692Z,25.50
2022-08-22T02:29:35.509Z,25.70
2022-08-22T02:32:19.990Z,25.80
2022-08-22T02:35:39.237Z,25.70
2022-08-22T02:39:09.199Z,25.40
2022-08-22T02:42:03.073Z,25.30
2022-08-22T02:45:06.305Z,25.20
2022-08-22T02:47:47.925Z,25.10
2022-08-22T02:50:36.708Z,25.10
2022-08-22T02:53:15.040Z,25.00
2022-08-22T02:56:06.248Z,25.10
2022-08-22T02:58:47.883Z,25.00
2022-08-22T03:01:31.122Z,24.90
2022-08-22T03:04:31.386Z,25.00
2022-08-22T03:07:05.894Z,25.10
2022-08-22T03:10:20.610Z,25.30
2022-08-22T03:13:13.176Z,25.50
2022-08-22T03:15:48.526Z,25.60
2022-08-22T03:18:45.519Z,25.50
2022-08-22T03:21:19.401Z,25.30
2022-08-22T03:24:07.019Z,25.20
2022-08-22T03:26:52.963Z,25.10
2022-08-22T03:29:33.637Z,25.10
2022-08-22T03:32:23.090Z,25.00
2022-08-22T03:35:10.205Z,25.00
2022-08-22T03:37:38.449Z,25.10
2022-08-22T03:40:31.664Z,25.00
2022-08-22T03:43:32.350Z,25.00
2022-08-22T03:46:26.786Z,25.10
2022-08-22T03:49:13.297Z,25.10
2022-08-22T03:52:02.219Z,25.40
2022-08-22T03:55:03.691Z,25.60
2022-08-22T03:58:05.732Z,25.70
2022-08-22T04:00:56.060Z,25.70
2022-08-22T04:03:59.643Z,25.30
2022-08-22T04:06:44.585Z,25.20
2022-08-22T04:09:38.379Z,25.20
2022-08-22T04:12:42.142Z,25.20
2022-08-22T04:15:39.570Z,25.10
2022-08-22T04:18:23.804Z,25.10
2022-08-22T04:21:10.221Z,25.10
2022-08-22T04:23:53.782Z,25.10
2022-08-22T04:26:47.952Z,25.00
2022-08-22T04:29:36.393Z,25.10
2022-08-22T04:32:16.339Z,25.40
2022-08-22T04:35:10.205Z,25.60
2022-08-22T04:38:06.119Z,25.70
2022-08-22T04:40:52.684Z,25.70
2022-08-22T04:43:25.216Z,25.60
2022-08-22T04:46:06.851Z,25.50
2022-08-22T04:48:45.499Z,25.30
2022-08-22T04:51:22.724Z,25.30
2022-08-22T04:54:23.091Z,25.30
2022-08-22T04:57:26.163Z,25.30
2022-08-22T05:00:01.945Z,25.30
2022-08-22T05:02:30.188Z,25.20
2022-08-22T05:05:13.682Z,25.20
2022-08-22T05:07:50.503Z,25.20
2022-08-22T05:10:46.222Z,25.20
2022-08-22T05:13:24.262Z,25.30
2022-08-22T05:15:58.837Z,25.60
2022-08-22T05:18:31.720Z,25.60
2022-08-22T05:21:07.607Z,25.70
2022-08-22T05:23:42.033Z,25.60
2022-08-22T05:26:13.995Z,25.40
2022-08-22T05:28:53.654Z,25.30
2022-08-22T05:31:35.133Z,25.20
2022-08-22T05:34:08.491Z,25.20
2022-08-22T05:36:43.964Z,25.20
2022-08-22T05:39:25.347Z,25.20
2022-08-22T05:42:03.414Z,25.20
2022-08-22T05:44:34.860Z,25.20
2022-08-22T05:47:20.283Z,25.20
2022-08-22T05:49:57.507Z,25.20
2022-08-22T05:52:45.863Z,25.10
2022-08-22T05:55:25.817Z,25.40
2022-08-22T05:58:32.614Z,25.70
2022-08-22T06:01:20.196Z,25.90
2022-08-22T06:03:57.484Z,25.50
2022-08-22T06:06:28.894Z,25.20
2022-08-22T06:09:07.750Z,25.00
2022-08-22T06:11:41.679Z,25.00
2022-08-22T06:14:24.801Z,25.00
2022-08-22T06:17:05.928Z,25.00
2022-08-22T06:19:39.257Z,25.00
2022-08-22T06:22:08.257Z,24.90
2022-08-22T06:24:38.497Z,25.00
2022-08-22T06:27:12.383Z,24.90
2022-08-22T06:29:55.040Z,25.00
2022-08-22T06:32:58.892Z,25.10
2022-08-22T06:35:43.867Z,25.10
2022-08-22T06:38:12.465Z,25.30
2022-08-22T06:40:42.134Z,25.20
2022-08-22T06:43:12.967Z,25.10
2022-08-22T06:45:41.999Z,25.00
2022-08-22T06:48:10.121Z,25.00
2022-08-22T06:50:42.287Z,25.00
2022-08-22T06:53:22.393Z,25.00
2022-08-22T06:55:56.291Z,24.90
2022-08-22T06:58:30.984Z,24.90
2022-08-22T07:01:25.002Z,24.80
2022-08-22T07:03:58.336Z,24.90
2022-08-22T07:06:53.418Z,24.90
2022-08-22T07:09:32.271Z,24.90
2022-08-22T07:12:04.050Z,25.10
2022-08-22T07:14:45.690Z,25.30
2022-08-22T07:17:24.816Z,25.30
2022-08-22T07:20:20.627Z,25.40
2022-08-22T07:23:15.156Z,25.20
2022-08-22T07:25:56.133Z,25.00
2022-08-22T07:28:50.925Z,25.00
2022-08-22T07:31:47.466Z,25.00
2022-08-22T07:34:32.366Z,25.00
2022-08-22T07:37:15.393Z,24.90
2022-08-22T07:39:53.821Z,25.00
2022-08-22T07:42:31.429Z,25.20
2022-08-22T07:45:02.723Z,25.40
2022-08-22T07:47:54.053Z,25.40
2022-08-22T07:50:28.818Z,25.60
2022-08-22T07:53:15.633Z,25.70
2022-08-22T07:55:49.452Z,25.80
2022-08-22T07:58:19.972Z,25.70
2022-08-22T08:00:50.423Z,25.60
2022-08-22T08:03:22.435Z,25.50
2022-08-22T08:05:51.285Z,25.50
2022-08-22T08:08:27.116Z,25.30
2022-08-22T08:10:59.471Z,25.30
2022-08-22T08:13:34.623Z,25.50
2022-08-22T08:16:05.672Z,28.00
2022-08-22T08:18:36.520Z,31.50
2022-08-22T08:21:09.144Z,31.80
2022-08-22T08:23:45.686Z,30.40
2022-08-22T08:26:22.028Z,30.80
2022-08-22T08:28:53.707Z,30.10
2022-08-22T08:31:28.429Z,29.90
2022-08-22T08:34:13.263Z,29.60
2022-08-22T08:36:55.493Z,29.40
2022-08-22T08:39:36.135Z,28.90
2022-08-22T08:42:30.479Z,28.20
2022-08-22T08:45:08.400Z,28.00
2022-08-22T08:47:42.847Z,27.70
2022-08-22T08:50:48.204Z,27.50
2022-08-22T08:53:28.610Z,27.10
2022-08-22T08:56:28.523Z,27.00
2022-08-22T08:59:34.031Z,27.10
2022-08-22T09:02:13.807Z,26.70
2022-08-22T09:05:06.785Z,27.00
2022-08-22T09:07:58.914Z,27.60
2022-08-22T09:10:33.486Z,28.50
2022-08-22T09:13:22.873Z,29.20
2022-08-22T09:16:07.896Z,30.10
2022-08-22T09:18:44.470Z,30.70
2022-08-22T09:21:12.915Z,31.40
2022-08-22T09:24:18.506Z,31.20
2022-08-22T09:27:00.821Z,31.20
2022-08-22T09:29:54.630Z,35.20
2022-08-22T09:32:43.668Z,36.90
2022-08-22T09:35:30.289Z,36.30
2022-08-22T09:38:18.419Z,34.80
2022-08-22T09:40:56.096Z,33.00
2022-08-22T09:43:45.183Z,30.90
2022-08-22T09:46:31.999Z,29.90
2022-08-22T09:49:36.918Z,29.20
2022-08-22T09:52:34.654Z,28.80
2022-08-22T09:55:13.495Z,28.70
2022-08-22T09:58:11.262Z,28.90
2022-08-22T10:00:58.021Z,28.40
2022-08-22T10:03:54.477Z,28.40
2022-08-22T10:06:31.457Z,28.90
2022-08-22T10:09:11.176Z,29.90
2022-08-22T10:11:58.285Z,31.00
2022-08-22T10:14:36.266Z,31.70
2022-08-22T10:17:28.809Z,31.90
2022-08-22T10:20:27.691Z,31.60
2022-08-22T10:23:34.607Z,31.10
2022-08-22T10:26:22.966Z,30.60
2022-08-22T10:29:31.753Z,30.60
2022-08-22T10:32:19.095Z,30.60
2022-08-22T10:34:59.703Z,30.60
2022-08-22T10:37:50.298Z,31.30
2022-08-22T10:40:26.598Z,31.30
2022-08-22T10:43:18.882Z,31.00
2022-08-22T10:45:52.634Z,30.60
2022-08-22T10:48:23.597Z,30.70
2022-08-22T10:51:08.765Z,30.80
2022-08-22T10:54:08.944Z,31.00
2022-08-22T10:57:03.592Z,31.30
2022-08-22T11:00:00.047Z,31.50
2022-08-22T11:03:03.454Z,31.50
2022-08-22T11:05:41.394Z,31.80
2022-08-22T11:08:27.056Z,31.70
2022-08-22T11:11:19.189Z,31.80
2022-08-22T11:13:47.834Z,31.70
2022-08-22T11:16:18.256Z,31.40
2022-08-22T11:19:16.564Z,31.30
2022-08-22T11:21:54.911Z,31.00
2022-08-22T11:24:35.700Z,31.40
2022-08-22T11:27:21.944Z,31.60
2022-08-22T11:30:44.004Z,31.80
2022-08-22T11:33:47.463Z,31.60
2022-08-22T11:36:34.450Z,30.90
2022-08-22T11:39:34.549Z,31.20
2022-08-22T11:42:15.578Z,31.20
2022-08-22T11:44:57.809Z,31.50
2022-08-22T11:47:34.683Z,31.70
2022-08-22T11:50:06.953Z,31.80
2022-08-22T11:52:55.566Z,31.60
2022-08-22T11:55:33.292Z,31.10
2022-08-22T11:58:50.626Z,31.00
2022-08-22T12:01:34.201Z,31.00
2022-08-22T12:04:09.820Z,30.70
2022-08-22T12:06:46.975Z,30.90
2022-08-22T12:09:27.535Z,30.70
2022-08-22T12:12:19.678Z,30.30
2022-08-22T12:15:21.491Z,30.30
2022-08-22T12:18:08.072Z,30.40
2022-08-22T12:20:52.240Z,30.80
2022-08-22T12:23:43.170Z,30.70
2022-08-22T12:26:17.707Z,30.90
2022-08-22T12:29:16.811Z,31.30
2022-08-22T12:32:16.038Z,31.40
2022-08-22T12:35:13.433Z,31.00
2022-08-22T12:37:54.204Z,31.00
2022-08-22T12:40:37.260Z,31.40
2022-08-22T12:43:33.878Z,30.80
2022-08-22T12:46:47.244Z,30.60
2022-08-22T12:49:23.971Z,31.00
2022-08-22T12:52:11.218Z,30.90
2022-08-22T12:54:50.870Z,31.30
2022-08-22T12:57:31.923Z,31.30
2022-08-22T13:00:11.655Z,31.20
2022-08-22T13:02:41.944Z,30.90
2022-08-22T13:05:12.980Z,30.70
2022-08-22T13:08:04.331Z,31.00
2022-08-22T13:10:48.028Z,30.70
2022-08-22T13:13:56.138Z,30.50
2022-08-22T13:16:36.532Z,30.50
2022-08-22T13:19:18.437Z,30.80
2022-08-22T13:21:57.785Z,30.90
2022-08-22T13:24:52.477Z,30.60
2022-08-22T13:27:51.373Z,31.00
2022-08-22T13:30:37.571Z,30.80
2022-08-22T13:33:11.304Z,30.90
2022-08-22T13:35:51.945Z,30.90
2022-08-22T13:38:26.228Z,31.20
2022-08-22T13:40:58.359Z,31.20
2022-08-22T13:43:28.984Z,31.10
2022-08-22T13:46:01.854Z,31.10
2022-08-22T13:49:00.827Z,31.10
2022-08-22T13:51:47.680Z,30.90
2022-08-22T13:54:16.014Z,30.60
2022-08-22T13:57:24.743Z,31.00
2022-08-22T14:00:08.016Z,30.90
2022-08-22T14:03:08.023Z,30.80
2022-08-22T14:05:53.251Z,30.80
2022-08-22T14:08:35.266Z,30.80
2022-08-22T14:11:26.850Z,30.90
2022-08-22T14:14:04.285Z,30.50
2022-08-22T14:16:35.726Z,30.40
2022-08-22T14:19:31.652Z,30.70
2022-08-22T14:22:14.535Z,30.50
2022-08-22T14:24:48.557Z,30.30
2022-08-22T14:27:47.131Z,30.70
2022-08-22T14:30:25.099Z,30.70
2022-08-22T14:33:12.484Z,30.50
2022-08-22T14:35:54.430Z,30.80
2022-08-22T14:38:29.855Z,30.70
2022-08-22T14:41:25.346Z,30.70
2022-08-22T14:43:59.633Z,30.50
2022-08-22T14:46:52.018Z,30.70
2022-08-22T14:49:24.930Z,30.70
2022-08-22T14:52:29.476Z,30.60
2022-08-22T14:55:09.374Z,30.50
2022-08-22T14:57:46.658Z,30.60
2022-08-22T15:00:45.468Z,30.30
2022-08-22T15:03:28.645Z,30.70
2022-08-22T15:06:31.904Z,30.70
2022-08-22T15:09:02.058Z,30.70
2022-08-22T15:11:42.203Z,30.40
2022-08-22T15:14:34.168Z,30.50
2022-08-22T15:17:10.178Z,30.20
2022-08-22T15:19:47.635Z,29.90
2022-08-22T15:22:29.057Z,29.90
2022-08-22T15:24:57.327Z,30.00
2022-08-22T15:27:29.440Z,30.00
2022-08-22T15:30:07.744Z,30.10
2022-08-22T15:32:49.369Z,29.80
2022-08-22T15:35:29.835Z,29.80
2022-08-22T15:38:03.528Z,30.10
2022-08-22T15:40:52.857Z,30.20
2022-08-22T15:43:44.818Z,30.00
2022-08-22T15:46:18.182Z,30.30
2022-08-22T15:49:02.793Z,30.70
2022-08-22T15:51:39.691Z,30.70
2022-08-22T15:54:24.436Z,30.40
2022-08-22T15:56:54.174Z,30.00
2022-08-22T15:59:54.480Z,29.90
2022-08-22T16:02:29.640Z,29.60
2022-08-22T16:05:10.578Z,29.70
2022-08-22T16:07:49.860Z,29.80
2022-08-22T16:10:24.580Z,30.00
2022-08-22T16:13:17.696Z,29.90
2022-08-22T16:15:54.142Z,29.90
2022-08-22T16:18:39.945Z,29.60
2022-08-22T16:21:21.856Z,29.60
2022-08-22T16:23:56.329Z,29.70
2022-08-22T16:26:31.155Z,29.70
2022-08-22T16:29:41.853Z,29.70
2022-08-22T16:32:12.629Z,29.50
2022-08-22T16:34:44.283Z,29.30
2022-08-22T16:37:15.526Z,29.20
2022-08-22T16:40:00.119Z,29.00
2022-08-22T16:42:45.782Z,28.80
2022-08-22T16:45:37.018Z,28.40
2022-08-22T16:48:27.114Z,28.20
2022-08-22T16:51:12.687Z,28.20
2022-08-22T16:53:45.806Z,28.30
2022-08-22T16:56:40.205Z,28.10
2022-08-22T16:59:39.287Z,28.00
2022-08-22T17:02:35.620Z,28.20
2022-08-22T17:05:29.427Z,28.50
2022-08-22T17:08:20.369Z,28.70
2022-08-22T17:11:00.208Z,28.70
2022-08-22T17:13:37.578Z,28.80
2022-08-22T17:16:24.014Z,28.70
2022-08-22T17:19:14.181Z,28.70
2022-08-22T17:21:56.815Z,28.60
2022-08-22T17:24:47.502Z,28.60
2022-08-22T17:28:00.119Z,28.70
2022-08-22T17:30:31.950Z,28.80
2022-08-22T17:33:17.971Z,28.70
2022-08-22T17:35:52.238Z,28.20
2022-08-22T17:38:42.351Z,28.10
2022-08-22T17:41:47.983Z,28.00
2022-08-22T17:44:25.989Z,27.70
2022-08-22T17:47:14.495Z,27.70
2022-08-22T17:49:54.463Z,27.50
2022-08-22T17:52:34.536Z,27.30
2022-08-22T17:55:14.897Z,27.30
2022-08-22T17:58:43.190Z,27.40
2022-08-22T18:01:14.705Z,27.50
2022-08-22T18:03:52.416Z,27.70
2022-08-22T18:06:24.753Z,27.60
2022-08-22T18:09:18.732Z,27.70
2022-08-22T18:11:50.560Z,27.80
2022-08-22T18:14:49.521Z,27.80
2022-08-22T18:17:44.435Z,27.80
2022-08-22T18:20:22.482Z,27.80
2022-08-22T18:22:59.263Z,27.90
2022-08-22T18:25:35.072Z,27.90
2022-08-22T18:28:21.564Z,27.80
2022-08-22T18:31:19.333Z,27.80
2022-08-22T18:33:58.948Z,27.80
2022-08-22T18:36:45.979Z,27.50
2022-08-22T18:39:29.039Z,27.20
2022-08-22T18:42:18.137Z,27.20
2022-08-22T18:44:46.352Z,27.20
2022-08-22T18:47:21.237Z,27.10
2022-08-22T18:49:55.072Z,27.00
2022-08-22T18:52:36.329Z,27.00
2022-08-22T18:55:27.254Z,26.90
2022-08-22T18:57:58.676Z,26.90
2022-08-22T19:00:54.868Z,26.90
2022-08-22T19:03:41.830Z,27.20
2022-08-22T19:06:10.131Z,27.40
2022-08-22T19:08:58.565Z,27.60
2022-08-22T19:12:06.208Z,27.70
2022-08-22T19:14:56.034Z,27.70
2022-08-22T19:18:05.843Z,27.70
2022-08-22T19:20:37.287Z,27.60
2022-08-22T19:23:33.315Z,27.50
2022-08-22T19:26:25.267Z,27.50
2022-08-22T19:28:57.596Z,27.40
2022-08-22T19:31:25.713Z,27.00
2022-08-22T19:34:18.140Z,26.90
2022-08-22T19:37:07.093Z,26.80
2022-08-22T19:39:41.150Z,26.80
2022-08-22T19:42:21.556Z,26.70
2022-08-22T19:45:17.977Z,26.70
2022-08-22T19:47:56.391Z,26.80
2022-08-22T19:50:26.770Z,26.70
2022-08-22T19:53:31.441Z,26.70
2022-08-22T19:56:29.101Z,26.80
2022-08-22T19:59:11.650Z,27.20
2022-08-22T20:01:46.578Z,27.30
2022-08-22T20:04:45.334Z,27.50
2022-08-22T20:07:42.977Z,27.60
2022-08-22T20:10:20.125Z,27.50
2022-08-22T20:13:07.841Z,27.50
2022-08-22T20:16:02.051Z,27.50
2022-08-22T20:19:07.966Z,27.40
2022-08-22T20:21:43.382Z,27.20
2022-08-22T20:24:31.142Z,26.90
2022-08-22T20:27:17.854Z,26.80
2022-08-22T20:30:02.047Z,26.80
2022-08-22T20:32:33.710Z,26.70
2022-08-22T20:35:04.926Z,26.80
2022-08-22T20:38:05.298Z,26.60
2022-08-22T20:41:00.605Z,26.50
2022-08-22T20:43:51.918Z,26.60
2022-08-22T20:46:54.889Z,26.80
2022-08-22T20:49:29.095Z,26.90
2022-08-22T20:52:04.225Z,26.90
2022-08-22T20:54:37.273Z,26.90
2022-08-22T20:57:20.126Z,27.00
2022-08-22T20:59:56.420Z,27.00
2022-08-22T21:02:36.200Z,27.10
2022-08-22T21:05:18.799Z,27.10
2022-08-22T21:08:01.315Z,27.10
2022-08-22T21:10:32.269Z,27.20
2022-08-22T21:13:07.759Z,26.80
2022-08-22T21:15:42.341Z,26.70
2022-08-22T21:18:23.691Z,26.50
2022-08-22T21:20:52.443Z,26.50
2022-08-22T21:23:21.196Z,26.40
2022-08-22T21:25:56.568Z,26.40
2022-08-22T21:28:57.172Z,26.40
2022-08-22T21:31:49.802Z,26.30
2022-08-22T21:34:37.351Z,26.30
2022-08-22T21:37:15.121Z,26.50
2022-08-22T21:40:07.428Z,26.90
2022-08-22T21:42:37.611Z,27.10
2022-08-22T21:45:29.128Z,27.10
2022-08-22T21:47:58.493Z,27.10
2022-08-22T21:50:31.519Z,27.10
2022-08-22T21:53:10.171Z,27.20
2022-08-22T21:55:43.164Z,27.10
2022-08-22T21:58:30.986Z,27.10
2022-08-22T22:01:33.393Z,27.00
2022-08-22T22:04:01.686Z,27.10
2022-08-22T22:06:30.386Z,27.20
2022-08-22T22:08:58.665Z,27.10
2022-08-22T22:11:27.041Z,27.20
2022-08-22T22:13:55.637Z,27.10
2022-08-22T22:16:29.397Z,26.90
2022-08-22T22:18:57.737Z,26.60
2022-08-22T22:21:26.349Z,26.50
2022-08-22T22:23:54.653Z,26.40
2022-08-22T22:26:27.593Z,26.40
2022-08-22T22:28:56.319Z,26.30
2022-08-22T22:31:24.608Z,26.30
2022-08-22T22:33:52.691Z,26.30
2022-08-22T22:36:24.198Z,26.30
2022-08-22T22:38:53.782Z,26.30
2022-08-22T22:41:23.973Z,26.30
2022-08-22T22:43:56.090Z,26.30
2022-08-22T22:46:25.684Z,26.60
2022-08-22T22:48:55.295Z,26.70
2022-08-22T22:51:24.356Z,27.00
2022-08-22T22:53:52.646Z,26.90
2022-08-22T22:56:23.830Z,26.80
2022-08-22T22:59:01.018Z,26.90
2022-08-22T23:02:11.484Z,26.90
2022-08-22T23:04:43.300Z,26.90
2022-08-22T23:07:14.020Z,26.70
2022-08-22T23:09:44.758Z,26.50
2022-08-22T23:12:15.080Z,26.50
2022-08-22T23:14:43.681Z,26.40
2022-08-22T23:17:12.355Z,26.30
2022-08-22T23:19:40.652Z,26.30
2022-08-22T23:22:10.214Z,26.30
2022-08-22T23:24:40.338Z,26.30
2022-08-22T23:27:10.187Z,26.30
2022-08-22T23:29:40.567Z,26.20
2022-08-22T23:32:10.584Z,26.40
2022-08-22T23:34:42.495Z,26.70
2022-08-22T23:37:14.863Z,26.90
2022-08-22T23:39:43.372Z,27.00
2022-08-22T23:42:12.566Z,27.00
2022-08-22T23:44:42.457Z,26.90
2022-08-22T23:47:11.497Z,26.90
2022-08-22T23:49:41.035Z,27.00
2022-08-22T23:52:11.073Z,27.10
2022-08-22T23:54:39.462Z,26.90
2022-08-22T23:57:11.852Z,26.60
2022-08-22T23:59:47.912Z,26.50
